Aviation Digital Data Service (ADDS)

Output produced by METARs form (1137 UTC 07 October 2022)
found at http://www.aviationweather.gov/metar/data/
 
VTBU 071130Z 26005KT 9999 FEW020 28/25 Q1010 NOSIG
VTBU 071100Z 25005KT 9999 FEW020 28/24 Q1009 NOSIG
VTBU 071030Z 26006KT 9999 FEW020 29/24 Q1009 NOSIG
VTBU 071000Z 26005KT 9999 FEW020 29/24 Q1008 NOSIG
VTBU 070930Z 26007KT 9999 FEW020 30/25 Q1008 NOSIG
VTBU 070900Z 25008KT 9999 FEW020 30/25 Q1008 NOSIG
VTBU 070830Z 20010KT 9999 FEW020 30/25 Q1008 NOSIG
VTBU 070800Z 18011KT 9999 FEW020 30/23 Q1008 NOSIG
VTBU 070730Z 18009KT 9999 FEW020 30/23 Q1009 NOSIG
VTBU 070700Z 18008KT 9999 FEW020 30/23 Q1009 NOSIG
VTBU 070630Z 16008KT 9999 FEW020 SCT100 31/23 Q1009 NOSIG
VTBU 070600Z 18007KT 9999 FEW020 SCT100 31/23 Q1010 NOSIG
VTBU 070530Z 15007KT 9999 FEW020 SCT100 31/24 Q1011 NOSIG
VTBU 070500Z 16008KT 9999 FEW020 SCT100 31/23 Q1011 NOSIG
VTBU 070430Z 15007KT 9999 FEW020 31/24 Q1012 NOSIG
VTBU 070400Z 15006KT 9999 FEW020 31/24 Q1012 NOSIG
VTBU 070330Z 14005KT 9999 FEW020 30/25 Q1012 NOSIG
VTBU 070300Z 12004KT 9999 FEW020 30/24 Q1012 NOSIG
VTBU 070230Z 06003KT 9999 FEW020 30/24 Q1012 NOSIG
VTBU 070200Z 36004KT 9999 FEW020 29/24 Q1012 NOSIG
VTBU 070130Z VRB02KT 9000 FEW020 28/25 Q1012 NOSIG
VTBU 070100Z 01004KT 9000 FEW020 27/24 Q1011 NOSIG
VTBU 070030Z 01005KT 9000 FEW020 26/25 Q1011 NOSIG
VTBU 070000Z 01007KT 9000 FEW020 25/24 Q1010 NOSIG
VTBU 062330Z 35007KT 9000 FEW020 25/24 Q1010 NOSIG
VTBU 062300Z 36004KT 9000 FEW020 25/24 Q1010 NOSIG
VTBU 062230Z 01004KT 9000 FEW020 25/24 Q1010 NOSIG
VTBU 062200Z 35004KT 9000 FEW020 SCT100 25/24 Q1009 NOSIG
VTBU 062130Z 34004KT 9000 FEW020 SCT100 25/24 Q1009 NOSIG
VTBU 062100Z 36004KT 9000 FEW020 SCT100 25/24 Q1010 NOSIG
VTBU 062030Z 01004KT 9000 FEW020 SCT100 25/24 Q1010 NOSIG
VTBU 062000Z 01005KT 9000 FEW020 SCT100 25/24 Q1010 NOSIG
VTBU 061930Z 35004KT 9000 FEW020 SCT100 25/24 Q1010 NOSIG
VTBU 061900Z 36004KT 9000 FEW020 SCT100 25/24 Q1010 NOSIG
VTBU 061830Z 01003KT 9000 FEW020 SCT100 25/24 Q1010 NOSIG
VTBU 061800Z 01004KT 9000 FEW020 SCT100 25/24 Q1011 NOSIG
VTBU 061730Z 35003KT 9000 FEW020 SCT100 25/24 Q1011 NOSIG
VTBU 061700Z 33004KT 9000 FEW020 SCT100 25/24 Q1011 NOSIG
VTBU 061630Z 35004KT 9000 FEW020 SCT100 25/24 Q1011 NOSIG
VTBU 061600Z 36004KT 9000 FEW018 SCT100 25/24 Q1012 NOSIG
VTBU 061530Z 31004KT 9000 -RA FEW018 SCT100 26/25 Q1012 NOSIG
VTBU 061500Z 03003KT 9000 -RA FEW018 SCT100 26/25 Q1012 NOSIG
VTBU 061430Z 35004KT 9000 -RA FEW018 SCT100 26/25 Q1012 NOSIG
VTBU 061400Z 03006KT 9000 -RA FEW018 SCT100 26/25 Q1012 NOSIG
VTBU 061330Z 05004KT 9000 -RA FEW018 SCT100 26/25 Q1012 NOSIG
VTBU 061300Z 04004KT 9000 -RA FEW018 26/24 Q1011 NOSIG
VTBU 061230Z 04004KT 9999 FEW020 26/24 Q1011 NOSIG
VTBU 061200Z 06003KT 9999 FEW020 26/24 Q1010 NOSIG
TAF VTBU 071100Z 0712/0812 25005KT 9999 FEW020 
     BECMG 0714/0716 01004KT 
     BECMG 0801/0803 19008KT